Time;durP1;ratioP1;P1;durP2;ratioP2;P2;SDS_P1;SDS_P2;PMS_P1;PMS_P2;Temp;Humidity;BMP_temperature;BMP_pressure;BME280_temperature;BME280_humidity;BME280_pressure;Samples;Min_cycle;Max_cycle;Signal;HPM_P1;HPM_P2
2021/06/12 00:01:47;;;;;;;;;;;;;;;16.58;79.83;101217.91;4898618;29;19915;-73
2021/06/12 00:04:12;;;;;;;;;;;;;;;16.56;80.23;101213.75;4915276;29;20021;-73
2021/06/12 00:06:38;;;;;;;;;;;;;;;16.60;80.13;101217.69;4898313;29;19929;-73
2021/06/12 00:09:04;;;;;;;;;;;;;;;16.55;80.31;101217.44;4898623;29;20499;-73
2021/06/12 00:11:29;;;;;;;;;;;;;;;16.42;80.82;101220.84;4915348;29;19958;-73
2021/06/12 00:13:54;;;;;;;;;;;;;;;16.40;80.82;101221.03;4915262;29;19985;-73
2021/06/12 00:16:20;;;;;;;;;;;;;;;16.34;81.39;101226.31;4914742;29;19919;-73
2021/06/12 00:18:46;;;;;;;;;;;;;;;16.45;80.85;101226.66;4916584;29;20316;-73
2021/06/12 00:21:11;;;;;;;;;;;;;;;16.42;81.03;101229.75;4886770;29;20025;-73
2021/06/12 00:23:36;;;;;;;;;;;;;;;16.38;80.97;101231.16;4918982;29;19965;-73
2021/06/12 00:26:01;;;;;;;;;;;;;;;16.39;80.98;101221.22;4901976;29;20345;-73
2021/06/12 00:28:27;;;;;;;;;;;;;;;16.25;81.88;101217.53;4918897;29;19915;-73
2021/06/12 00:30:52;;;;;;;;;;;;;;;16.36;81.58;101221.59;4918738;29;19925;-73
2021/06/12 00:33:17;;;;;;;;;;;;;;;16.34;81.78;101229.88;4902105;29;19947;-73
2021/06/12 00:35:43;;;;;;;;;;;;;;;16.29;81.98;101232.28;4918653;29;19981;-73
2021/06/12 00:38:09;;;;;;;;;;;;;;;16.41;81.36;101222.72;4901769;29;19915;-73
2021/06/12 00:40:35;;;;;;;;;;;;;;;16.34;81.89;101224.50;4918592;29;19919;-73
2021/06/12 00:43:00;;;;;;;;;;;;;;;16.42;81.57;101216.28;4918575;29;20002;-73
2021/06/12 00:45:28;;;;;;;;;;;;;;;16.38;81.56;101206.06;4918456;29;19919;-73
2021/06/12 00:47:54;;;;;;;;;;;;;;;16.30;81.87;101192.72;4901593;29;20035;-73
2021/06/12 00:50:20;;;;;;;;;;;;;;;16.29;81.88;101202.63;4918487;29;20018;-73
2021/06/12 00:52:45;;;;;;;;;;;;;;;16.19;82.26;101204.81;4901867;29;20010;-73
2021/06/12 00:55:12;;;;;;;;;;;;;;;16.16;83.03;101197.09;4901749;29;20367;-73
2021/06/12 00:57:37;;;;;;;;;;;;;;;16.16;83.05;101189.84;4901684;29;20029;-73
2021/06/12 01:00:04;;;;;;;;;;;;;;;16.16;83.14;101183.63;4918242;29;19954;-73
2021/06/12 01:02:29;;;;;;;;;;;;;;;16.20;83.05;101177.69;4918232;29;19919;-73
2021/06/12 01:04:55;;;;;;;;;;;;;;;16.24;82.84;101167.34;4918210;29;19922;-73
2021/06/12 01:07:20;;;;;;;;;;;;;;;16.30;82.69;101171.16;4917893;29;20230;-73
2021/06/12 01:09:45;;;;;;;;;;;;;;;16.25;82.36;101179.81;4901484;29;19919;-74
2021/06/12 01:12:16;;;;;;;;;;;;;;;16.19;82.37;101169.78;4918116;29;20018;-73
2021/06/12 01:14:44;;;;;;;;;;;;;;;16.16;82.61;101173.69;4917873;29;19919;-73
2021/06/12 01:17:12;;;;;;;;;;;;;;;16.20;82.96;101175.00;4917644;29;20030;-73
2021/06/12 01:19:37;;;;;;;;;;;;;;;16.20;83.22;101174.13;4901238;29;20322;-73
2021/06/12 01:22:06;;;;;;;;;;;;;;;16.27;82.46;101185.00;4917995;29;19977;-73
2021/06/12 01:24:48;;;;;;;;;;;;;;;16.17;82.92;101179.91;4917875;29;20349;-73
2021/06/12 01:27:13;;;;;;;;;;;;;;;16.16;83.50;101189.03;4917507;29;19967;-74
2021/06/12 01:29:57;;;;;;;;;;;;;;;16.24;83.03;101184.34;4900296;29;19922;-74
2021/06/12 01:32:25;;;;;;;;;;;;;;;16.11;83.08;101180.66;4901244;29;20362;-73
2021/06/12 01:34:51;;;;;;;;;;;;;;;16.00;83.61;101182.81;4917712;29;19915;-74
2021/06/12 01:37:17;;;;;;;;;;;;;;;16.18;82.54;101187.00;4900779;29;20405;-74
2021/06/12 01:39:43;;;;;;;;;;;;;;;16.13;82.79;101194.78;4917553;29;19915;-74
2021/06/12 01:42:09;;;;;;;;;;;;;;;16.18;82.52;101187.00;4900854;29;20535;-74
2021/06/12 01:44:35;;;;;;;;;;;;;;;16.10;83.16;101185.22;4900783;29;19926;-73
2021/06/12 01:47:01;;;;;;;;;;;;;;;16.03;82.73;101189.69;4900423;29;19919;-74
2021/06/12 01:49:29;;;;;;;;;;;;;;;16.13;83.11;101200.16;4917501;29;19915;-74
2021/06/12 01:51:55;;;;;;;;;;;;;;;15.93;84.07;101194.53;4900851;29;19923;-73
2021/06/12 01:54:21;;;;;;;;;;;;;;;16.01;83.86;101189.03;4885094;29;20306;-73
2021/06/12 01:56:47;;;;;;;;;;;;;;;16.03;84.00;101187.81;4884749;29;19978;-73
2021/06/12 01:59:12;;;;;;;;;;;;;;;16.06;84.02;101180.38;4917288;29;20089;-74
2021/06/12 02:01:40;;;;;;;;;;;;;;;15.98;84.50;101194.81;4900618;29;20009;-73
2021/06/12 02:04:05;;;;;;;;;;;;;;;15.89;84.69;101185.97;4900519;29;19921;-73
2021/06/12 02:06:30;;;;;;;;;;;;;;;16.01;84.19;101184.50;4900094;29;19923;-73
2021/06/12 02:08:56;;;;;;;;;;;;;;;15.95;83.92;101182.56;4900324;29;20318;-73
2021/06/12 02:11:22;;;;;;;;;;;;;;;15.94;84.36;101180.03;4917069;29;20324;-74
2021/06/12 02:13:48;;;;;;;;;;;;;;;16.06;84.26;101183.94;4916913;29;20272;-73
2021/06/12 02:16:14;;;;;;;;;;;;;;;16.02;84.30;101175.38;4916556;29;19950;-73
2021/06/12 02:18:40;;;;;;;;;;;;;;;16.02;84.19;101172.69;4916916;29;19954;-73
2021/06/12 02:21:06;;;;;;;;;;;;;;;15.93;84.11;101168.44;4900075;29;19915;-73
2021/06/12 02:23:31;;;;;;;;;;;;;;;15.91;83.94;101178.56;4916754;29;19929;-74
2021/06/12 02:25:57;;;;;;;;;;;;;;;15.98;83.43;101181.34;4916286;29;19927;-73
2021/06/12 02:28:24;;;;;;;;;;;;;;;15.93;83.68;101173.00;4916695;29;20245;-73
2021/06/12 02:31:01;;;;;;;;;;;;;;;15.85;84.74;101165.84;4916713;29;19918;-73
2021/06/12 02:33:27;;;;;;;;;;;;;;;15.90;83.82;101168.81;4900082;29;20309;-73
2021/06/12 02:35:53;;;;;;;;;;;;;;;15.99;83.78;101153.38;4916347;29;19916;-74
2021/06/12 02:38:18;;;;;;;;;;;;;;;16.01;83.56;101159.41;4916578;29;20648;-73
2021/06/12 02:40:44;;;;;;;;;;;;;;;15.94;83.58;101156.63;4899859;29;19918;-73
2021/06/12 02:43:09;;;;;;;;;;;;;;;16.02;83.16;101151.16;4899737;29;19911;-75
2021/06/12 02:45:34;;;;;;;;;;;;;;;15.95;83.42;101144.84;4899649;29;19976;-73
2021/06/12 02:48:01;;;;;;;;;;;;;;;15.97;82.95;101134.72;4899566;29;20341;-73
2021/06/12 02:50:29;;;;;;;;;;;;;;;16.03;82.39;101139.34;4899652;29;19955;-73
2021/06/12 02:52:57;;;;;;;;;;;;;;;15.96;82.98;101124.13;4916209;29;20037;-73
2021/06/12 02:55:22;;;;;;;;;;;;;;;16.07;82.82;101125.53;4884106;29;20075;-73
2021/06/12 02:57:49;;;;;;;;;;;;;;;16.09;82.47;101118.91;4915901;29;20009;-73
2021/06/12 03:00:17;;;;;;;;;;;;;;;16.14;82.35;101115.66;4899620;29;20373;-74
2021/06/12 03:02:43;;;;;;;;;;;;;;;15.99;83.38;101113.84;4916110;29;20001;-74
2021/06/12 03:05:12;;;;;;;;;;;;;;;16.00;83.35;101115.50;4916022;29;19915;-74
2021/06/12 03:07:38;;;;;;;;;;;;;;;16.15;83.28;101122.69;4915823;29;19958;-74
2021/06/12 03:10:03;;;;;;;;;;;;;;;16.18;82.73;101119.66;4916034;29;20451;-74
2021/06/12 03:12:30;;;;;;;;;;;;;;;16.04;82.97;101121.34;4916000;29;19918;-73
2021/06/12 03:14:56;;;;;;;;;;;;;;;15.96;83.22;101116.88;4915954;29;19926;-74
2021/06/12 03:17:22;;;;;;;;;;;;;;;16.01;83.03;101113.63;4898915;29;19926;-73
2021/06/12 03:19:48;;;;;;;;;;;;;;;16.06;83.04;101108.53;4899190;29;19914;-73
2021/06/12 03:22:14;;;;;;;;;;;;;;;16.06;82.89;101113.06;4899224;29;19919;-73
2021/06/12 03:24:39;;;;;;;;;;;;;;;16.01;83.26;101111.78;4915815;29;19919;-73
2021/06/12 03:27:05;;;;;;;;;;;;;;;16.06;83.32;101113.91;4915347;29;20273;-73
2021/06/12 03:29:31;;;;;;;;;;;;;;;16.10;83.66;101120.56;4899127;29;19915;-73
2021/06/12 03:31:57;;;;;;;;;;;;;;;16.15;82.67;101120.00;4915629;29;20329;-74
2021/06/12 03:34:23;;;;;;;;;;;;;;;15.92;83.53;101121.00;4915434;29;19915;-73
2021/06/12 03:36:49;;;;;;;;;;;;;;;15.85;83.41;101122.78;4898701;29;19946;-74
2021/06/12 03:39:15;;;;;;;;;;;;;;;15.96;83.69;101116.88;4899091;29;20424;-73
2021/06/12 03:41:40;;;;;;;;;;;;;;;16.16;82.94;101127.06;4915629;29;20014;-74
2021/06/12 03:44:06;;;;;;;;;;;;;;;16.20;82.83;101114.88;4915568;29;19980;-74
2021/06/12 03:46:32;;;;;;;;;;;;;;;16.15;83.02;101120.84;4915180;29;19930;-74
2021/06/12 03:48:57;;;;;;;;;;;;;;;16.18;82.44;101117.78;4915371;29;19915;-73
2021/06/12 03:51:23;;;;;;;;;;;;;;;16.15;81.86;101114.63;4898809;29;19974;-74
2021/06/12 03:53:48;;;;;;;;;;;;;;;16.10;82.20;101117.06;4918849;29;19930;-73
2021/06/12 03:56:15;;;;;;;;;;;;;;;16.14;82.13;101126.44;4889228;29;19929;-74
2021/06/12 03:58:42;;;;;;;;;;;;;;;16.21;82.03;101119.25;4921762;29;19980;-74
2021/06/12 04:01:07;;;;;;;;;;;;;;;16.23;82.07;101123.41;4905053;29;20420;-74
2021/06/12 04:03:32;;;;;;;;;;;;;;;16.17;82.26;101121.47;4921553;29;20022;-74
2021/06/12 04:05:58;;;;;;;;;;;;;;;16.27;81.81;101133.81;4888905;29;19922;-74
2021/06/12 04:08:23;;;;;;;;;;;;;;;16.24;81.40;101135.03;4921715;29;20246;-74
2021/06/12 04:10:48;;;;;;;;;;;;;;;16.14;81.96;101129.13;4921680;29;19969;-74
2021/06/12 04:13:14;;;;;;;;;;;;;;;16.20;82.36;101128.34;4921636;29;20321;-74
2021/06/12 04:15:39;;;;;;;;;;;;;;;16.36;81.44;101129.97;4921660;29;20066;-74
2021/06/12 04:18:07;;;;;;;;;;;;;;;16.20;81.67;101128.34;4888873;29;19930;-74
2021/06/12 04:20:34;;;;;;;;;;;;;;;16.23;82.16;101119.91;4904782;29;19973;-74
2021/06/12 04:22:59;;;;;;;;;;;;;;;16.22;82.30;101116.38;4904810;29;20252;-74
2021/06/12 04:25:25;;;;;;;;;;;;;;;16.15;82.05;101110.06;4921460;29;19954;-74
2021/06/12 04:27:50;;;;;;;;;;;;;;;16.16;82.31;101110.91;4904583;29;20366;-74
2021/06/12 04:30:19;;;;;;;;;;;;;;;16.32;81.57;101107.97;4904799;29;19914;-74
2021/06/12 04:32:44;;;;;;;;;;;;;;;16.33;81.39;101112.34;4921401;29;19919;-74
2021/06/12 04:35:10;;;;;;;;;;;;;;;16.23;81.74;101114.50;4921334;29;20245;-74
2021/06/12 04:37:35;;;;;;;;;;;;;;;16.24;81.60;101116.16;4921137;29;19926;-74
2021/06/12 04:40:00;;;;;;;;;;;;;;;16.19;81.52;101113.22;4921298;29;19969;-74
2021/06/12 04:42:26;;;;;;;;;;;;;;;16.13;81.42;101112.13;4921465;29;19973;-74
2021/06/12 04:44:51;;;;;;;;;;;;;;;16.27;80.77;101113.09;4921325;29;19919;-74
2021/06/12 04:47:16;;;;;;;;;;;;;;;16.09;80.96;101113.53;4920992;29;20246;-74
2021/06/12 04:49:41;;;;;;;;;;;;;;;16.27;80.90;101126.56;4921303;29;19926;-74
2021/06/12 04:52:07;;;;;;;;;;;;;;;16.35;80.68;101131.84;4921399;29;20345;-74
2021/06/12 04:54:32;;;;;;;;;;;;;;;16.40;80.78;101117.78;4921303;29;20018;-74
2021/06/12 04:56:57;;;;;;;;;;;;;;;16.26;80.86;101119.50;4904428;29;19915;-74
2021/06/12 04:59:22;;;;;;;;;;;;;;;16.29;81.59;101112.91;4904534;29;19921;-74
2021/06/12 05:01:48;;;;;;;;;;;;;;;16.38;81.11;101114.44;4904513;29;19918;-74
2021/06/12 05:04:13;;;;;;;;;;;;;;;16.39;80.85;101106.19;4920554;29;20034;-74
2021/06/12 05:06:38;;;;;;;;;;;;;;;16.37;80.65;101104.72;4885844;29;20293;-74
2021/06/12 05:09:03;;;;;;;;;;;;;;;16.23;80.86;101104.56;4901495;29;19919;-73
2021/06/12 05:11:29;;;;;;;;;;;;;;;16.24;80.98;101103.53;4918259;29;19947;-73
2021/06/12 05:13:54;;;;;;;;;;;;;;;16.35;81.03;101104.91;4917965;29;19922;-74
2021/06/12 05:16:19;;;;;;;;;;;;;;;16.27;80.52;101106.88;4917624;29;19915;-73
2021/06/12 05:18:45;;;;;;;;;;;;;;;16.28;80.43;101120.16;4918078;29;19973;-74
2021/06/12 05:21:13;;;;;;;;;;;;;;;16.27;79.61;101105.00;4917926;29;20021;-74
2021/06/12 05:23:39;;;;;;;;;;;;;;;16.26;80.07;101116.81;4917947;29;19976;-73
2021/06/12 05:26:05;;;;;;;;;;;;;;;16.25;79.81;101109.78;4917571;29;19965;-74
2021/06/12 05:28:30;;;;;;;;;;;;;;;16.24;79.98;101111.59;4917918;29;19926;-73
2021/06/12 05:30:55;;;;;;;;;;;;;;;16.36;79.81;101105.72;4917728;29;19915;-74
2021/06/12 05:33:24;;;;;;;;;;;;;;;16.48;80.48;101097.97;4885249;29;19915;-74
2021/06/12 05:35:50;;;;;;;;;;;;;;;16.40;78.98;101091.69;4917532;29;19926;-74
2021/06/12 05:38:16;;;;;;;;;;;;;;;16.33;79.55;101104.25;4901080;29;20245;-74
2021/06/12 05:40:41;;;;;;;;;;;;;;;16.45;79.48;101102.69;4901064;29;19919;-74
2021/06/12 05:43:06;;;;;;;;;;;;;;;16.56;78.83;101095.16;4900871;29;20410;-74
2021/06/12 05:45:32;;;;;;;;;;;;;;;16.56;79.64;101087.06;4917396;29;19980;-74
2021/06/12 05:47:57;;;;;;;;;;;;;;;16.66;78.83;101093.78;4900505;29;20021;-74
2021/06/12 05:50:22;;;;;;;;;;;;;;;16.55;78.99;101088.94;4900871;29;19919;-74
2021/06/12 05:52:47;;;;;;;;;;;;;;;16.54;78.70;101083.72;4917364;29;19915;-74
2021/06/12 05:55:13;;;;;;;;;;;;;;;16.53;80.03;101095.50;4900894;29;19922;-74
2021/06/12 05:57:38;;;;;;;;;;;;;;;16.46;79.81;101090.91;4900540;29;20460;-74
2021/06/12 06:00:04;;;;;;;;;;;;;;;16.56;78.88;101078.97;4917266;29;19919;-74
2021/06/12 06:02:38;;;;;;;;;;;;;;;16.42;79.73;101088.78;4887433;29;19919;-74
2021/06/12 06:05:03;;;;;;;;;;;;;;;16.54;79.73;101083.72;4917090;29;20022;-74
2021/06/12 06:07:28;;;;;;;;;;;;;;;16.58;79.41;101079.63;4916827;29;19998;-74
2021/06/12 06:09:54;;;;;;;;;;;;;;;16.57;79.22;101088.72;4884922;29;19990;-74
2021/06/12 06:12:19;;;;;;;;;;;;;;;16.53;79.60;101084.72;4899919;29;20007;-74
2021/06/12 06:14:44;;;;;;;;;;;;;;;16.56;80.11;101095.16;4916538;29;19915;-74
2021/06/12 06:17:09;;;;;;;;;;;;;;;16.63;79.27;101091.47;4916017;29;19915;-73
2021/06/12 06:19:35;;;;;;;;;;;;;;;16.80;77.92;101089.34;4916901;29;20013;-74
2021/06/12 06:22:00;;;;;;;;;;;;;;;16.89;78.69;101090.06;4916785;29;19914;-74
2021/06/12 06:24:25;;;;;;;;;;;;;;;16.84;77.86;101090.66;4916899;29;19915;-75
2021/06/12 06:26:50;;;;;;;;;;;;;;;16.87;77.05;101087.56;4916475;29;19919;-74
2021/06/12 06:29:16;;;;;;;;;;;;;;;17.05;77.22;101084.38;4916637;29;20294;-74
2021/06/12 06:31:41;;;;;;;;;;;;;;;17.26;76.71;101080.78;4916771;29;19965;-75
2021/06/12 06:34:06;;;;;;;;;;;;;;;17.43;76.10;101083.97;4900093;29;19915;-74
2021/06/12 06:36:31;;;;;;;;;;;;;;;17.26;77.08;101086.16;4916420;29;19936;-74
2021/06/12 06:38:57;;;;;;;;;;;;;;;17.08;77.00;101080.44;4916625;29;19915;-74
2021/06/12 06:41:22;;;;;;;;;;;;;;;17.13;75.92;101087.94;4884400;29;19921;-74
2021/06/12 06:43:47;;;;;;;;;;;;;;;17.06;77.33;101085.19;4899863;29;20257;-74
2021/06/12 06:46:12;;;;;;;;;;;;;;;16.86;77.47;101082.38;4899006;29;19923;-74
2021/06/12 06:48:37;;;;;;;;;;;;;;;16.92;78.46;101083.44;4899795;29;19918;-75
2021/06/12 06:51:03;;;;;;;;;;;;;;;16.92;78.49;101097.75;4916333;29;19919;-74
2021/06/12 06:53:32;;;;;;;;;;;;;;;16.97;79.64;101098.00;4884033;29;20397;-75
2021/06/12 06:55:58;;;;;;;;;;;;;;;16.87;80.50;101087.56;4899446;29;20013;-77
2021/06/12 06:58:23;;;;;;;;;;;;;;;16.86;79.72;101093.97;4899609;29;20301;-74
2021/06/12 07:00:48;;;;;;;;;;;;;;;16.53;81.19;101088.28;4899553;29;20449;-75
2021/06/12 07:03:13;;;;;;;;;;;;;;;16.36;82.95;101092.25;4916171;29;20288;-75
2021/06/12 07:05:39;;;;;;;;;;;;;;;16.26;83.51;101084.50;4883768;29;19923;-75
2021/06/12 07:08:04;;;;;;;;;;;;;;;16.29;83.15;101083.28;4899205;29;19915;-75
2021/06/12 07:10:29;;;;;;;;;;;;;;;16.06;83.51;101081.59;4916095;29;20255;-73
2021/06/12 07:13:01;;;;;;;;;;;;;;;16.06;84.45;101076.22;4899332;29;20380;-74
2021/06/12 07:15:27;;;;;;;;;;;;;;;16.23;82.21;101085.72;4915974;29;20017;-74
2021/06/12 07:17:53;;;;;;;;;;;;;;;16.11;84.47;101086.38;4898923;29;20352;-74
2021/06/12 07:20:19;;;;;;;;;;;;;;;16.00;83.47;101087.72;4915846;29;19927;-73
2021/06/12 07:22:44;;;;;;;;;;;;;;;16.18;83.11;101090.00;4915805;29;20015;-74
2021/06/12 07:25:09;;;;;;;;;;;;;;;16.12;81.76;101091.59;4883426;29;19926;-74
2021/06/12 07:27:35;;;;;;;;;;;;;;;15.95;82.07;101090.16;4915321;29;20346;-74
2021/06/12 07:30:00;;;;;;;;;;;;;;;15.89;82.73;101072.06;4915231;29;19925;-74
2021/06/12 07:32:25;;;;;;;;;;;;;;;15.78;84.32;101100.28;4915614;29;20251;-74
2021/06/12 07:34:50;;;;;;;;;;;;;;;15.73;82.08;101097.34;4915405;29;20024;-74
2021/06/12 07:37:16;;;;;;;;;;;;;;;15.62;82.72;101082.50;4882978;29;20254;-74
2021/06/12 07:39:41;;;;;;;;;;;;;;;15.83;83.73;101087.13;4898868;29;19930;-74
2021/06/12 07:42:06;;;;;;;;;;;;;;;15.72;83.03;101095.69;4915398;29;20010;-74
2021/06/12 07:44:31;;;;;;;;;;;;;;;15.82;84.04;101088.97;4915270;29;19919;-74
2021/06/12 07:46:57;;;;;;;;;;;;;;;15.88;83.75;101090.09;4915126;29;20345;-74
2021/06/12 07:49:22;;;;;;;;;;;;;;;15.85;83.20;101087.78;4915296;29;19915;-75
2021/06/12 07:51:47;;;;;;;;;;;;;;;15.88;81.36;101079.31;4883192;29;20047;-66
2021/06/12 07:54:13;;;;;;;;;;;;;;;15.93;80.84;101093.03;4898673;29;20361;-66
2021/06/12 07:56:38;;;;;;;;;;;;;;;15.93;80.09;101092.22;4915123;29;19918;-66
2021/06/12 07:59:03;;;;;;;;;;;;;;;16.17;81.54;101085.63;4915185;29;19918;-66
2021/06/12 08:01:29;;;;;;;;;;;;;;;16.33;81.10;101090.78;4898567;29;19966;-66
2021/06/12 08:03:54;;;;;;;;;;;;;;;16.43;77.74;101076.97;4898509;29;20345;-66
2021/06/12 08:06:19;;;;;;;;;;;;;;;16.59;78.05;101070.50;4882585;29;19970;-66
2021/06/12 08:08:44;;;;;;;;;;;;;;;16.41;75.94;101069.09;4915339;29;20010;-66
2021/06/12 08:11:10;;;;;;;;;;;;;;;16.58;76.63;101063.44;4915366;29;19947;-66
2021/06/12 08:13:36;;;;;;;;;;;;;;;16.70;74.52;101078.06;4915125;29;19986;-66
2021/06/12 08:16:03;;;;;;;;;;;;;;;16.96;75.65;101082.03;4913866;29;19919;-66
2021/06/12 08:18:28;;;;;;;;;;;;;;;17.19;75.92;101081.78;4898419;29;19946;-66
2021/06/12 08:20:54;;;;;;;;;;;;;;;17.00;72.82;101083.31;4898152;29;19983;-66
2021/06/12 08:23:19;;;;;;;;;;;;;;;17.22;74.66;101082.19;4914823;29;19915;-66
2021/06/12 08:25:44;;;;;;;;;;;;;;;17.25;74.65;101086.34;4914770;29;20013;-66
2021/06/12 08:28:09;;;;;;;;;;;;;;;17.42;72.04;101087.72;4897839;29;19915;-66
2021/06/12 08:30:36;;;;;;;;;;;;;;;17.13;72.37;101087.94;4914851;29;20007;-66
2021/06/12 08:33:02;;;;;;;;;;;;;;;17.26;72.48;101096.97;4898414;29;19915;-66
2021/06/12 08:35:27;;;;;;;;;;;;;;;17.09;68.50;101088.34;4914919;29;20010;-66
2021/06/12 08:37:52;;;;;;;;;;;;;;;17.03;70.02;101093.69;4914680;29;20484;-65
2021/06/12 08:40:18;;;;;;;;;;;;;;;17.08;69.22;101081.28;4900280;29;20030;-66
2021/06/12 08:42:47;;;;;;;;;;;;;;;17.34;69.44;101084.34;4886182;29;19927;-66
2021/06/12 08:45:12;;;;;;;;;;;;;;;17.80;69.60;101092.66;4901909;29;20022;-65
2021/06/12 08:47:38;;;;;;;;;;;;;;;17.91;68.97;101086.72;4901724;29;20738;-66
2021/06/12 08:50:06;;;;;;;;;;;;;;;17.86;67.83;101075.69;4900805;29;19999;-65
2021/06/12 08:52:31;;;;;;;;;;;;;;;18.00;68.18;101068.44;4917623;29;19925;-66
2021/06/12 08:54:56;;;;;;;;;;;;;;;18.17;68.44;101070.75;4901904;29;19914;-65
2021/06/12 08:57:21;;;;;;;;;;;;;;;18.38;67.34;101072.47;4901464;29;19919;-66
2021/06/12 08:59:47;;;;;;;;;;;;;;;18.48;64.31;101078.31;4918396;29;19915;-66
2021/06/12 09:02:12;;;;;;;;;;;;;;;19.00;60.31;101073.97;4901789;29;20413;-65
2021/06/12 09:04:45;;;;;;;;;;;;;;;19.96;56.60;101080.56;4918116;29;19919;-66
2021/06/12 09:07:21;;;;;;;;;;;;;;;20.02;56.42;101074.28;4901311;29;19923;-66
2021/06/12 09:09:47;;;;;;;;;;;;;;;20.68;53.08;101064.06;4918129;29;19969;-66
2021/06/12 09:12:12;;;;;;;;;;;;;;;20.99;53.25;101055.00;4918160;29;20245;-66
2021/06/12 09:14:38;;;;;;;;;;;;;;;20.85;51.02;101057.00;4918055;29;19919;-66
2021/06/12 09:17:03;;;;;;;;;;;;;;;21.72;52.55;101054.19;4901056;29;19919;-66
2021/06/12 09:19:37;;;;;;;;;;;;;;;21.23;49.62;101064.13;4917884;29;19918;-66
2021/06/12 09:22:02;;;;;;;;;;;;;;;20.69;51.98;101049.44;4901363;29;20389;-66
2021/06/12 09:24:34;;;;;;;;;;;;;;;20.82;50.47;101065.59;4917792;29;20026;-66
2021/06/12 09:27:02;;;;;;;;;;;;;;;20.23;52.76;101062.28;4917556;29;19919;-66
2021/06/12 09:29:40;;;;;;;;;;;;;;;20.19;51.70;101070.00;4901135;29;20006;-66
2021/06/12 09:32:10;;;;;;;;;;;;;;;19.54;54.16;101072.78;4901109;29;20345;-66
2021/06/12 09:34:36;;;;;;;;;;;;;;;19.15;54.49;101081.84;4917690;29;19914;-66
2021/06/12 09:37:08;;;;;;;;;;;;;;;18.85;54.68;101085.03;4917360;29;19945;-66
2021/06/12 09:39:33;;;;;;;;;;;;;;;18.62;56.56;101079.16;4901002;29;20044;-66
2021/06/12 09:41:59;;;;;;;;;;;;;;;19.11;55.37;101091.44;4900947;29;20027;-66
2021/06/12 09:44:34;;;;;;;;;;;;;;;19.19;56.71;101091.22;4917475;29;19915;-66
2021/06/12 09:47:00;;;;;;;;;;;;;;;19.25;56.58;101081.44;4884803;29;20353;-66
2021/06/12 09:49:30;;;;;;;;;;;;;;;18.79;56.11;101082.31;4917336;29;19921;-65
2021/06/12 09:52:04;;;;;;;;;;;;;;;18.62;54.69;101093.50;4899921;29;19914;-66
2021/06/12 09:54:36;;;;;;;;;;;;;;;18.67;55.66;101084.78;4885070;29;19925;-66
2021/06/12 09:57:02;;;;;;;;;;;;;;;19.05;53.93;101086.88;4917123;29;19919;-66
2021/06/12 09:59:27;;;;;;;;;;;;;;;19.71;51.55;101094.84;4917301;29;19915;-66
2021/06/12 10:01:52;;;;;;;;;;;;;;;20.83;49.91;101078.09;4917191;29;20751;-66
2021/06/12 10:04:17;;;;;;;;;;;;;;;22.01;49.83;101087.03;4917149;29;19919;-66
2021/06/12 10:06:43;;;;;;;;;;;;;;;22.24;44.85;101083.63;4916742;29;19958;-66
2021/06/12 10:09:08;;;;;;;;;;;;;;;21.12;46.70;101092.03;4917149;29;19919;-66
2021/06/12 10:11:35;;;;;;;;;;;;;;;19.61;50.08;101103.38;4900489;29;20371;-66
2021/06/12 10:14:00;;;;;;;;;;;;;;;20.07;51.49;101098.84;4884714;29;19918;-66
2021/06/12 10:16:27;;;;;;;;;;;;;;;19.62;51.63;101112.38;4916476;29;19978;-66
2021/06/12 10:18:52;;;;;;;;;;;;;;;19.19;54.28;101104.75;4916992;29;19925;-66
2021/06/12 10:21:18;;;;;;;;;;;;;;;18.94;54.22;101107.25;4900235;29;20291;-66
2021/06/12 10:23:44;;;;;;;;;;;;;;;18.71;53.68;101104.97;4916886;29;19919;-66
2021/06/12 10:26:10;;;;;;;;;;;;;;;18.64;55.21;101090.59;4899825;29;19979;-66
2021/06/12 10:28:35;;;;;;;;;;;;;;;18.69;54.73;101104.34;4916787;29;20374;-66
2021/06/12 10:31:05;;;;;;;;;;;;;;;18.61;55.68;101112.63;4916608;29;19926;-66
2021/06/12 10:33:32;;;;;;;;;;;;;;;18.87;55.50;101107.28;4900108;29;19915;-66
2021/06/12 10:36:09;;;;;;;;;;;;;;;19.11;52.78;101113.09;4916340;29;20047;-66
2021/06/12 10:38:34;;;;;;;;;;;;;;;19.37;53.40;101117.63;4900014;29;20423;-66
2021/06/12 10:41:12;;;;;;;;;;;;;;;19.52;53.96;101106.53;4899892;29;20062;-66
2021/06/12 10:43:38;;;;;;;;;;;;;;;20.01;50.28;101124.91;4899725;29;19915;-66
2021/06/12 10:46:06;;;;;;;;;;;;;;;20.44;49.69;101113.44;4899480;29;19931;-66
2021/06/12 10:48:53;;;;;;;;;;;;;;;20.33;49.93;101106.00;4916408;29;20281;-66
2021/06/12 10:51:24;;;;;;;;;;;;;;;20.35;51.12;101111.22;4916296;29;19918;-66
2021/06/12 10:54:27;;;;;;;;;;;;;;;20.86;50.35;101110.22;4899688;29;19922;-66
2021/06/12 10:56:54;;;;;;;;;;;;;;;21.15;50.20;101111.44;4899330;29;19919;-66
2021/06/12 10:59:38;;;;;;;;;;;;;;;21.43;47.92;101091.94;4916196;29;20313;-66
2021/06/12 11:02:24;;;;;;;;;;;;;;;21.64;46.59;101096.09;4899428;29;19918;-66
2021/06/12 11:07:26;;;;;;;;;;;;;;;20.27;49.89;101097.91;4915803;29;19974;-66
2021/06/12 11:09:52;;;;;;;;;;;;;;;21.69;45.86;101119.88;4916109;29;20001;-66
2021/06/12 11:12:17;;;;;;;;;;;;;;;22.16;44.60;101103.78;4899479;29;20397;-66
2021/06/12 11:14:59;;;;;;;;;;;;;;;21.80;44.81;101110.13;4899233;29;19938;-66
2021/06/12 11:17:25;;;;;;;;;;;;;;;20.76;47.57;101108.00;4915543;29;19915;-66
2021/06/12 11:19:50;;;;;;;;;;;;;;;20.23;48.13;101109.19;4915845;29;19985;-66
2021/06/12 11:22:31;;;;;;;;;;;;;;;20.03;48.39;101122.00;4899151;29;19970;-66
2021/06/12 11:24:59;;;;;;;;;;;;;;;20.87;47.17;101111.88;4915827;29;20311;-66
2021/06/12 11:27:50;;;;;;;;;;;;;;;20.23;48.40;101132.75;4915338;29;20273;-65
2021/06/12 11:30:24;;;;;;;;;;;;;;;19.64;49.25;101134.63;4896121;29;19915;-66
2021/06/12 11:33:08;;;;;;;;;;;;;;;19.43;50.92;101127.59;4915807;29;19926;-66
2021/06/12 11:35:48;;;;;;;;;;;;;;;18.75;52.61;101130.53;4915675;29;20676;-66
2021/06/12 11:38:27;;;;;;;;;;;;;;;18.75;54.94;101141.34;4898917;29;19923;-66
2021/06/12 11:40:57;;;;;;;;;;;;;;;18.81;53.62;101139.75;4899096;29;19919;-66
2021/06/12 11:43:34;;;;;;;;;;;;;;;20.08;50.84;101129.50;4898861;29;19918;-66
2021/06/12 11:46:01;;;;;;;;;;;;;;;20.32;48.34;101126.03;4915119;29;19945;-66
2021/06/12 11:48:26;;;;;;;;;;;;;;;20.89;47.13;101126.06;4898940;29;20486;-66
2021/06/12 11:50:52;;;;;;;;;;;;;;;21.45;46.82;101122.44;4915444;29;20043;-66
2021/06/12 11:53:19;;;;;;;;;;;;;;;21.58;44.72;101134.19;4898761;29;19926;-66
2021/06/12 11:55:45;;;;;;;;;;;;;;;22.45;43.49;101128.50;4915464;29;19926;-66
2021/06/12 11:58:10;;;;;;;;;;;;;;;22.01;46.17;101131.38;4898565;29;19915;-66
2021/06/12 12:00:40;;;;;;;;;;;;;;;21.30;47.35;101130.06;4898631;29;19919;-66
2021/06/12 12:03:09;;;;;;;;;;;;;;;20.49;48.16;101126.34;4898681;29;19915;-66
2021/06/12 12:05:36;;;;;;;;;;;;;;;20.04;50.82;101126.38;4915190;29;19915;-66
2021/06/12 12:08:02;;;;;;;;;;;;;;;19.49;51.46;101125.94;4915074;29;19937;-66
2021/06/12 12:10:28;;;;;;;;;;;;;;;19.28;52.70;101130.53;4915353;29;19921;-66
2021/06/12 12:12:54;;;;;;;;;;;;;;;19.06;52.09;101138.06;4915398;29;20010;-66
2021/06/12 12:15:35;;;;;;;;;;;;;;;18.99;53.84;101137.25;4900768;29;19915;-66
2021/06/12 12:18:01;;;;;;;;;;;;;;;19.90;51.61;101147.31;4918770;29;19915;-66
2021/06/12 12:20:27;;;;;;;;;;;;;;;21.26;48.27;101123.44;4902396;29;19915;-66
2021/06/12 12:22:53;;;;;;;;;;;;;;;20.49;47.38;101114.66;4886845;29;19990;-66
2021/06/12 12:25:25;;;;;;;;;;;;;;;20.23;50.29;101117.31;4918854;29;20002;-66
2021/06/12 12:28:00;;;;;;;;;;;;;;;19.88;49.74;101126.84;4901530;29;20401;-66
2021/06/12 12:30:25;;;;;;;;;;;;;;;19.20;51.00;101122.66;4902008;29;19953;-66
2021/06/12 12:32:51;;;;;;;;;;;;;;;19.14;53.24;101113.50;4902041;29;20380;-66
2021/06/12 12:35:16;;;;;;;;;;;;;;;18.82;53.04;101126.00;4902066;29;19990;-66
2021/06/12 12:37:42;;;;;;;;;;;;;;;18.40;53.95;101124.47;4901781;29;19926;-66